createdAt,value
2023-04-14T00:01:17.803Z,88.43
2023-04-14T00:03:47.489Z,88.30
2023-04-14T00:06:16.918Z,89.04
2023-04-14T00:08:46.178Z,88.73
2023-04-14T00:11:15.571Z,88.79
2023-04-14T00:13:46.304Z,88.52
2023-04-14T00:16:15.715Z,91.28
2023-04-14T00:18:45.140Z,90.36
2023-04-14T00:21:14.649Z,92.48
2023-04-14T00:23:43.945Z,91.33
2023-04-14T00:26:13.428Z,90.85
2023-04-14T00:28:44.315Z,90.87
2023-04-14T00:31:13.754Z,90.84
2023-04-14T00:33:43.077Z,90.63
2023-04-14T00:36:12.720Z,90.00
2023-04-14T00:38:42.148Z,90.20
2023-04-14T00:41:11.522Z,90.03
2023-04-14T00:43:40.828Z,90.39
2023-04-14T00:46:11.931Z,89.97
2023-04-14T00:50:05.733Z,90.11
2023-04-14T00:52:35.255Z,90.01
2023-04-14T00:55:06.242Z,90.19
2023-04-14T00:57:35.673Z,89.93
2023-04-14T01:00:07.197Z,90.25
2023-04-14T01:02:37.014Z,90.27
2023-04-14T01:05:08.813Z,90.53
2023-04-14T01:07:39.789Z,90.64
2023-04-14T01:10:10.908Z,90.67
2023-04-14T01:13:13.074Z,90.75
2023-04-14T01:15:51.905Z,90.85
2023-04-14T01:18:33.495Z,90.90
2023-04-14T01:21:11.996Z,90.55
2023-04-14T01:23:46.918Z,90.88
2023-04-14T01:26:22.144Z,90.81
2023-04-14T01:29:25.004Z,90.48
2023-04-14T01:32:05.933Z,90.72
2023-04-14T01:34:40.814Z,91.09
2023-04-14T01:37:16.812Z,90.66
2023-04-14T01:39:54.322Z,90.73
2023-04-14T01:42:30.285Z,91.06
2023-04-14T01:45:05.402Z,90.96
2023-04-14T01:47:37.997Z,91.02
2023-04-14T01:50:11.517Z,90.91
2023-04-14T01:52:41.873Z,90.75
2023-04-14T01:55:13.139Z,90.96
2023-04-14T01:57:44.368Z,91.33
2023-04-14T02:00:15.833Z,91.53
2023-04-14T02:02:48.839Z,91.50
2023-04-14T02:05:21.451Z,91.60
2023-04-14T02:07:53.312Z,91.53
2023-04-14T02:10:25.963Z,91.57
2023-04-14T02:12:59.096Z,91.41
2023-04-14T02:15:29.399Z,93.55
2023-04-14T02:18:01.504Z,93.20
2023-04-14T02:20:31.819Z,92.60
2023-04-14T02:23:01.396Z,92.52
2023-04-14T02:25:35.491Z,92.11
2023-04-14T02:28:12.101Z,92.85
2023-04-14T02:30:43.823Z,93.01
2023-04-14T02:33:20.750Z,92.98
2023-04-14T02:35:57.780Z,92.69
2023-04-14T02:38:39.289Z,93.19
2023-04-14T02:41:13.213Z,92.93
2023-04-14T02:43:51.909Z,92.98
2023-04-14T02:46:24.267Z,92.91
2023-04-14T02:48:57.331Z,92.83
2023-04-14T02:51:27.871Z,93.12
2023-04-14T02:53:57.795Z,92.84
2023-04-14T02:56:27.789Z,93.24
2023-04-14T02:58:58.662Z,93.25
2023-04-14T03:01:29.281Z,93.23
2023-04-14T03:04:00.570Z,93.01
2023-04-14T03:06:31.862Z,92.64
2023-04-14T03:09:02.710Z,92.81
2023-04-14T03:11:33.835Z,92.77
2023-04-14T03:14:03.602Z,92.50
2023-04-14T03:16:34.607Z,92.69
2023-04-14T03:19:08.252Z,92.46
2023-04-14T03:21:38.879Z,92.57
2023-04-14T03:24:09.652Z,92.63
2023-04-14T03:26:39.960Z,92.86
2023-04-14T03:29:11.954Z,92.56
2023-04-14T03:31:44.473Z,92.53
2023-04-14T03:34:18.155Z,92.66
2023-04-14T03:36:50.154Z,93.04
2023-04-14T03:39:21.227Z,93.04
2023-04-14T03:41:52.295Z,93.04
2023-04-14T03:44:23.629Z,94.32
2023-04-14T03:46:55.001Z,95.19
2023-04-14T03:51:09.410Z,94.89
2023-04-14T03:53:41.997Z,94.97
2023-04-14T03:56:14.784Z,95.25
2023-04-14T03:58:49.555Z,95.56
2023-04-14T04:01:20.629Z,94.99
2023-04-14T04:03:51.207Z,94.92
2023-04-14T04:06:22.418Z,95.11
2023-04-14T04:08:52.975Z,95.39
2023-04-14T04:11:24.558Z,95.11
2023-04-14T04:13:55.480Z,96.29
2023-04-14T04:16:26.896Z,95.86
2023-04-14T04:18:57.231Z,95.70
2023-04-14T04:21:31.971Z,95.02
2023-04-14T04:24:03.621Z,95.56
2023-04-14T04:26:34.531Z,96.23
2023-04-14T04:29:06.140Z,96.16
2023-04-14T04:31:36.505Z,95.81
2023-04-14T04:34:07.523Z,96.48
2023-04-14T04:36:39.847Z,96.28
2023-04-14T04:39:09.189Z,96.83
2023-04-14T04:41:38.455Z,96.70
2023-04-14T04:44:08.172Z,96.82
2023-04-14T04:46:55.729Z,96.13
2023-04-14T04:49:25.660Z,95.48
2023-04-14T04:51:57.249Z,96.24
2023-04-14T04:54:27.305Z,94.56
2023-04-14T04:56:57.870Z,94.78
2023-04-14T04:59:27.297Z,94.93
2023-04-14T05:01:56.890Z,94.60
2023-04-14T05:04:26.480Z,93.64
2023-04-14T05:06:57.680Z,94.09
2023-04-14T05:09:27.720Z,94.17
2023-04-14T05:11:57.531Z,93.79
2023-04-14T05:14:27.638Z,94.02
2023-04-14T05:16:57.230Z,93.78
2023-04-14T05:19:27.087Z,94.17
2023-04-14T05:21:57.840Z,93.51
2023-04-14T05:24:27.559Z,92.79
2023-04-14T05:27:13.017Z,92.29
2023-04-14T05:29:43.317Z,90.70
2023-04-14T05:32:14.725Z,86.21
2023-04-14T05:34:44.284Z,84.32
2023-04-14T05:37:15.157Z,81.71
2023-04-14T05:39:45.203Z,80.51
2023-04-14T05:42:14.641Z,78.29
2023-04-14T05:44:43.856Z,74.33
2023-04-14T05:47:13.233Z,73.96
2023-04-14T05:49:42.556Z,71.93
2023-04-14T05:52:13.388Z,68.65
2023-04-14T05:54:43.274Z,67.47
2023-04-14T05:57:12.886Z,67.19
2023-04-14T05:59:43.015Z,66.37
2023-04-14T06:02:12.429Z,66.57
2023-04-14T06:04:42.087Z,65.87
2023-04-14T06:07:11.493Z,65.95
2023-04-14T06:09:42.885Z,65.35
2023-04-14T06:12:12.955Z,65.54
2023-04-14T06:14:42.256Z,64.47
2023-04-14T06:17:11.728Z,63.56
2023-04-14T06:19:41.522Z,63.04
2023-04-14T06:22:11.616Z,63.72
2023-04-14T06:24:42.277Z,64.79
2023-04-14T06:27:11.805Z,65.70
2023-04-14T06:29:41.254Z,65.94
2023-04-14T06:32:10.801Z,66.76
2023-04-14T06:34:40.144Z,67.05
2023-04-14T06:37:09.475Z,67.19
2023-04-14T06:39:38.780Z,67.19
2023-04-14T06:42:13.261Z,66.41
2023-04-14T06:44:42.682Z,66.57
2023-04-14T06:47:12.057Z,66.33
2023-04-14T06:51:05.141Z,63.17
2023-04-14T06:53:34.457Z,64.13
2023-04-14T06:56:03.922Z,64.09
2023-04-14T06:58:33.527Z,63.13
2023-04-14T07:01:04.880Z,62.67
2023-04-14T07:03:34.785Z,63.04
2023-04-14T07:06:11.968Z,63.47
2023-04-14T07:08:41.481Z,63.05
2023-04-14T07:11:12.491Z,63.16
2023-04-14T07:13:42.156Z,63.26
2023-04-14T07:16:11.627Z,61.88
2023-04-14T07:18:41.091Z,62.71
2023-04-14T07:21:11.966Z,62.48
2023-04-14T07:23:41.331Z,61.21
2023-04-14T07:26:10.797Z,60.69
2023-04-14T07:28:40.092Z,60.89
2023-04-14T07:31:13.681Z,58.93
2023-04-14T07:33:43.043Z,60.89
2023-04-14T07:36:13.916Z,61.92
2023-04-14T07:38:43.963Z,61.42
2023-04-14T07:41:13.389Z,61.87
2023-04-14T07:43:42.788Z,61.71
2023-04-14T07:46:12.242Z,61.39
2023-04-14T07:48:41.892Z,61.51
2023-04-14T07:51:12.950Z,61.82
2023-04-14T07:53:45.260Z,61.19
2023-04-14T07:56:14.830Z,61.54
2023-04-14T07:58:44.673Z,62.25
2023-04-14T08:01:14.380Z,61.45
2023-04-14T08:03:45.533Z,61.06
2023-04-14T08:06:17.070Z,60.77
2023-04-14T08:08:46.847Z,60.45
2023-04-14T08:11:16.197Z,60.20
2023-04-14T08:13:46.657Z,59.75
2023-04-14T08:16:16.278Z,58.53
2023-04-14T08:18:45.699Z,57.24
2023-04-14T08:21:16.818Z,58.04
2023-04-14T08:23:46.261Z,59.31
2023-04-14T08:26:15.665Z,59.93
2023-04-14T08:28:44.962Z,60.31
2023-04-14T08:31:14.415Z,58.87
2023-04-14T08:33:43.942Z,60.54
2023-04-14T08:36:13.411Z,60.35
2023-04-14T08:38:44.163Z,60.74
2023-04-14T08:41:16.546Z,62.02
2023-04-14T08:43:45.655Z,61.76
2023-04-14T08:46:17.760Z,62.97
2023-04-14T08:48:49.494Z,63.77
2023-04-14T08:51:29.831Z,63.89
2023-04-14T08:54:02.209Z,64.86
2023-04-14T08:56:35.174Z,65.37
2023-04-14T08:59:04.684Z,66.31
2023-04-14T09:01:36.654Z,66.69
2023-04-14T09:04:07.456Z,67.67
2023-04-14T09:06:37.975Z,68.54
2023-04-14T09:09:09.486Z,69.21
2023-04-14T09:11:39.053Z,69.95
2023-04-14T09:14:10.249Z,71.82
2023-04-14T09:16:39.782Z,72.90
2023-04-14T09:19:10.570Z,74.92
2023-04-14T09:21:53.352Z,75.31
2023-04-14T09:24:32.190Z,76.62
2023-04-14T09:27:05.312Z,77.09
2023-04-14T09:29:34.947Z,77.41
2023-04-14T09:32:04.941Z,77.86
2023-04-14T09:34:34.335Z,77.32
2023-04-14T09:37:06.288Z,77.69
2023-04-14T09:39:38.317Z,77.48
2023-04-14T09:42:07.691Z,77.25
2023-04-14T09:44:37.060Z,76.92
2023-04-14T09:47:08.695Z,76.73
2023-04-14T09:51:07.311Z,76.74
2023-04-14T09:53:39.366Z,76.45
2023-04-14T09:56:12.016Z,77.40
2023-04-14T09:58:43.815Z,78.08
2023-04-14T10:01:15.997Z,77.53
2023-04-14T10:03:46.596Z,78.00
2023-04-14T10:06:21.071Z,77.53
2023-04-14T10:08:52.310Z,76.85
2023-04-14T10:11:25.168Z,77.32
2023-04-14T10:13:57.841Z,78.20
2023-04-14T10:16:28.184Z,77.38
2023-04-14T10:18:59.046Z,76.13
2023-04-14T10:21:30.905Z,74.26
2023-04-14T10:24:00.182Z,74.27
2023-04-14T10:26:30.229Z,73.48
2023-04-14T10:29:02.706Z,72.46
2023-04-14T10:31:36.065Z,71.86
2023-04-14T10:34:11.048Z,70.98
2023-04-14T10:36:42.923Z,70.74
2023-04-14T10:39:14.239Z,69.86
2023-04-14T10:41:50.819Z,70.00
2023-04-14T10:44:28.810Z,70.74
2023-04-14T10:47:00.445Z,70.75
2023-04-14T10:49:35.193Z,70.34
2023-04-14T10:52:08.445Z,69.20
2023-04-14T10:54:56.096Z,70.33
2023-04-14T10:57:26.910Z,69.65
2023-04-14T10:59:59.240Z,69.02
2023-04-14T11:02:30.817Z,68.86
2023-04-14T11:05:06.058Z,68.21
2023-04-14T11:07:46.259Z,66.00
2023-04-14T11:10:36.885Z,66.73
2023-04-14T11:13:09.308Z,66.76
2023-04-14T11:15:48.915Z,66.92
2023-04-14T11:18:21.351Z,67.18
2023-04-14T11:20:54.876Z,67.53
2023-04-14T11:23:31.091Z,67.69
2023-04-14T11:26:00.623Z,67.86
2023-04-14T11:28:34.288Z,67.31
2023-04-14T11:31:05.506Z,65.96
2023-04-14T11:33:37.796Z,64.38
2023-04-14T11:36:08.936Z,64.44
2023-04-14T11:38:40.949Z,65.44
2023-04-14T11:41:11.640Z,66.41
2023-04-14T11:43:46.889Z,65.57
2023-04-14T11:46:16.972Z,64.43
2023-04-14T11:48:46.722Z,64.97
2023-04-14T11:51:16.401Z,65.07
2023-04-14T11:53:48.289Z,64.53
2023-04-14T11:56:18.656Z,63.55
2023-04-14T11:58:48.101Z,63.38
2023-04-14T12:01:18.882Z,62.73
2023-04-14T12:03:50.112Z,62.80
2023-04-14T12:06:19.531Z,62.59
2023-04-14T12:08:57.224Z,62.68
2023-04-14T12:11:26.560Z,62.15
2023-04-14T12:13:56.138Z,61.98
2023-04-14T12:16:26.821Z,61.17
2023-04-14T12:18:57.025Z,61.15
2023-04-14T12:21:26.421Z,60.39
2023-04-14T12:23:57.176Z,59.76
2023-04-14T12:26:28.584Z,60.29
2023-04-14T12:28:59.044Z,58.83
2023-04-14T12:31:31.778Z,59.34
2023-04-14T12:34:05.557Z,60.31
2023-04-14T12:36:48.099Z,59.27
2023-04-14T12:39:22.320Z,59.40
2023-04-14T12:41:52.074Z,58.58
2023-04-14T12:44:24.564Z,58.75
2023-04-14T12:46:55.470Z,59.43
2023-04-14T12:51:13.180Z,59.63
2023-04-14T12:53:43.171Z,61.68
2023-04-14T12:56:14.640Z,61.71
2023-04-14T12:58:46.980Z,62.46
2023-04-14T13:01:18.531Z,62.37
2023-04-14T13:03:52.268Z,62.81
2023-04-14T13:06:25.495Z,63.72
2023-04-14T13:08:56.615Z,64.69
2023-04-14T13:11:26.686Z,64.96
2023-04-14T13:13:56.304Z,64.66
2023-04-14T13:16:26.662Z,65.48
2023-04-14T13:18:56.810Z,65.28
2023-04-14T13:21:27.527Z,64.13
2023-04-14T13:23:56.804Z,64.00
2023-04-14T13:26:26.178Z,63.87
2023-04-14T13:28:55.672Z,64.62
2023-04-14T13:31:24.978Z,65.14
2023-04-14T13:33:54.392Z,65.11
2023-04-14T13:36:23.725Z,65.79
2023-04-14T13:38:54.395Z,66.04
2023-04-14T13:41:24.646Z,66.07
2023-04-14T13:43:54.512Z,66.26
2023-04-14T13:46:24.020Z,66.87
2023-04-14T13:48:54.058Z,67.00
2023-04-14T13:51:24.672Z,67.05
2023-04-14T13:53:56.596Z,67.33
2023-04-14T13:56:27.404Z,67.09
2023-04-14T13:58:57.196Z,67.51
2023-04-14T14:01:26.514Z,68.34
2023-04-14T14:03:55.891Z,68.98
2023-04-14T14:06:26.620Z,69.29
2023-04-14T14:09:06.733Z,68.97
2023-04-14T14:11:37.227Z,69.08
2023-04-14T14:14:06.579Z,69.06
2023-04-14T14:16:37.024Z,70.03
2023-04-14T14:19:08.476Z,70.22
2023-04-14T14:21:37.962Z,71.23
2023-04-14T14:24:09.367Z,72.40
2023-04-14T14:26:38.703Z,73.38
2023-04-14T14:29:08.328Z,73.70
2023-04-14T14:31:37.724Z,74.42
2023-04-14T14:34:07.270Z,74.78
2023-04-14T14:36:36.581Z,74.58
2023-04-14T14:39:07.470Z,74.41
2023-04-14T14:41:36.912Z,74.71
2023-04-14T14:44:06.812Z,75.00
2023-04-14T14:46:36.495Z,75.91
2023-04-14T14:49:06.125Z,76.14
2023-04-14T14:51:36.328Z,75.94
2023-04-14T14:54:10.312Z,75.68
2023-04-14T14:56:40.018Z,76.43
2023-04-14T14:59:09.983Z,77.14
2023-04-14T15:01:39.189Z,77.59
2023-04-14T15:04:08.718Z,77.49
2023-04-14T15:06:38.480Z,77.92
2023-04-14T15:09:09.197Z,77.44
2023-04-14T15:11:38.544Z,77.05
2023-04-14T15:14:08.095Z,77.59
2023-04-14T15:16:37.338Z,78.05
2023-04-14T15:19:06.870Z,78.71
2023-04-14T15:21:36.185Z,78.61
2023-04-14T15:24:05.637Z,78.44
2023-04-14T15:26:36.379Z,79.01
2023-04-14T15:29:05.742Z,79.63
2023-04-14T15:31:35.236Z,79.71
2023-04-14T15:34:04.874Z,79.78
2023-04-14T15:36:34.599Z,79.07
2023-04-14T15:39:03.953Z,78.26
2023-04-14T15:41:36.167Z,78.01
2023-04-14T15:44:05.980Z,78.06
2023-04-14T15:46:35.202Z,78.45
2023-04-14T15:51:06.714Z,79.10
2023-04-14T15:53:39.209Z,79.49
2023-04-14T15:56:08.755Z,79.90
2023-04-14T15:58:38.105Z,78.43
2023-04-14T16:01:09.481Z,79.27
2023-04-14T16:03:39.406Z,79.13
2023-04-14T16:06:10.424Z,78.14
2023-04-14T16:08:39.819Z,74.68
2023-04-14T16:11:09.700Z,73.29
2023-04-14T16:13:39.157Z,72.19
2023-04-14T16:16:09.044Z,71.86
2023-04-14T16:18:38.632Z,70.22
2023-04-14T16:21:09.656Z,70.84
2023-04-14T16:23:39.084Z,69.86
2023-04-14T16:26:08.457Z,69.86
2023-04-14T16:28:39.962Z,68.88
2023-04-14T16:31:09.458Z,67.92
2023-04-14T16:33:39.301Z,67.69
2023-04-14T16:36:10.122Z,68.45
2023-04-14T16:38:40.077Z,69.66
2023-04-14T16:41:09.453Z,68.50
2023-04-14T16:43:38.976Z,68.42
2023-04-14T16:46:08.876Z,68.79
2023-04-14T16:48:38.227Z,69.55
2023-04-14T16:51:09.647Z,69.47
2023-04-14T16:53:40.167Z,69.37
2023-04-14T16:56:11.480Z,69.43
2023-04-14T16:58:41.993Z,70.10
2023-04-14T17:01:11.551Z,70.55
2023-04-14T17:03:43.247Z,71.13
2023-04-14T17:06:14.187Z,73.88
2023-04-14T17:08:44.735Z,76.90
2023-04-14T17:11:15.191Z,77.84
2023-04-14T17:13:44.453Z,78.07
2023-04-14T17:16:13.897Z,79.16
2023-04-14T17:18:44.186Z,80.71
2023-04-14T17:21:14.845Z,81.22
2023-04-14T17:23:44.626Z,82.55
2023-04-14T17:26:14.226Z,82.74
2023-04-14T17:28:44.255Z,83.94
2023-04-14T17:31:15.548Z,84.70
2023-04-14T17:33:46.451Z,85.32
2023-04-14T17:36:18.150Z,86.42
2023-04-14T17:38:47.708Z,87.37
2023-04-14T17:41:17.161Z,87.68
2023-04-14T17:43:46.464Z,88.51
2023-04-14T17:46:18.001Z,89.39
2023-04-14T17:48:47.432Z,89.53
2023-04-14T17:51:18.840Z,90.31
2023-04-14T17:53:50.408Z,91.55
2023-04-14T17:56:19.697Z,92.01
2023-04-14T17:58:49.077Z,93.84
2023-04-14T18:01:18.439Z,95.34
2023-04-14T18:03:47.821Z,95.23
2023-04-14T18:06:18.786Z,97.45
2023-04-14T18:08:48.259Z,99.80
2023-04-14T18:11:17.670Z,99.33
2023-04-14T18:13:46.976Z,100.00
2023-04-14T18:16:16.605Z,99.69
2023-04-14T18:18:46.331Z,100.00
2023-04-14T18:21:15.687Z,100.00
2023-04-14T18:24:47.976Z,100.00
2023-04-14T18:26:35.924Z,100.00
2023-04-14T18:29:05.342Z,100.00
2023-04-14T18:31:35.442Z,100.00
2023-04-14T18:34:05.620Z,100.00
2023-04-14T18:36:35.454Z,100.00
2023-04-14T18:39:07.274Z,100.00
2023-04-14T18:41:36.718Z,100.00
2023-04-14T18:44:06.814Z,100.00
2023-04-14T18:46:38.122Z,100.00
2023-04-14T18:51:08.251Z,100.00
2023-04-14T18:53:39.704Z,100.00
2023-04-14T18:56:11.227Z,100.00
2023-04-14T18:58:41.397Z,100.00
2023-04-14T19:01:11.016Z,100.00
2023-04-14T19:03:40.617Z,100.00
2023-04-14T19:06:11.718Z,100.00
2023-04-14T19:08:41.305Z,100.00
2023-04-14T19:11:11.996Z,99.94
2023-04-14T19:13:42.379Z,98.31
2023-04-14T19:16:13.622Z,99.75
2023-04-14T19:18:43.506Z,96.09
2023-04-14T19:21:14.286Z,95.70
2023-04-14T19:23:45.757Z,96.75
2023-04-14T19:26:15.564Z,96.35
2023-04-14T19:28:46.066Z,97.33
2023-04-14T19:31:15.991Z,97.46
2023-04-14T19:33:45.776Z,96.39
2023-04-14T19:36:18.561Z,94.98
2023-04-14T19:39:00.344Z,95.42
2023-04-14T19:41:30.061Z,93.40
2023-04-14T19:43:59.354Z,94.18
2023-04-14T19:46:28.676Z,94.13
2023-04-14T19:48:58.140Z,94.50
2023-04-14T19:51:29.254Z,94.27
2023-04-14T19:53:58.721Z,95.71
2023-04-14T19:56:28.428Z,94.95
2023-04-14T19:58:58.527Z,95.56
2023-04-14T20:01:28.105Z,96.59
2023-04-14T20:04:06.898Z,99.17
2023-04-14T20:06:43.415Z,98.12
2023-04-14T20:09:12.723Z,98.66
2023-04-14T20:11:42.090Z,98.09
2023-04-14T20:14:11.628Z,97.96
2023-04-14T20:16:42.854Z,97.46
2023-04-14T20:19:12.899Z,97.05
2023-04-14T20:21:43.998Z,98.12
2023-04-14T20:24:13.796Z,99.10
2023-04-14T20:26:43.845Z,98.87
2023-04-14T20:29:13.586Z,98.99
2023-04-14T20:31:43.206Z,98.61
2023-04-14T20:34:13.587Z,97.92
2023-04-14T20:36:45.221Z,97.15
2023-04-14T20:39:14.601Z,96.60
2023-04-14T20:41:43.864Z,96.17
2023-04-14T20:44:13.253Z,96.07
2023-04-14T20:46:42.957Z,96.18
2023-04-14T20:49:12.391Z,97.48
2023-04-14T20:51:43.156Z,98.92
2023-04-14T20:54:12.501Z,99.53
2023-04-14T20:56:41.816Z,100.00
2023-04-14T20:59:11.506Z,100.00
2023-04-14T21:01:42.780Z,100.00
2023-04-14T21:04:12.276Z,100.00
2023-04-14T21:06:43.215Z,100.00
2023-04-14T21:09:12.562Z,100.00
2023-04-14T21:11:42.079Z,100.00
2023-04-14T21:15:28.430Z,100.00
2023-04-14T21:17:00.766Z,100.00
2023-04-14T21:19:30.094Z,100.00
2023-04-14T21:22:00.760Z,100.00
2023-04-14T21:24:30.058Z,100.00
2023-04-14T21:27:00.725Z,100.00
2023-04-14T21:29:30.121Z,100.00
2023-04-14T21:31:59.558Z,100.00
2023-04-14T21:34:28.916Z,100.00
2023-04-14T21:37:00.706Z,100.00
2023-04-14T21:39:33.347Z,100.00
2023-04-14T21:42:03.854Z,100.00
2023-04-14T21:44:33.369Z,99.05
2023-04-14T21:47:02.699Z,98.81
2023-04-14T21:51:04.306Z,98.24
2023-04-14T21:53:34.536Z,99.04
2023-04-14T21:56:10.286Z,98.72
2023-04-14T21:58:40.962Z,99.35
2023-04-14T22:01:11.495Z,100.00
2023-04-14T22:03:42.387Z,100.00
2023-04-14T22:06:13.748Z,100.00
2023-04-14T22:08:43.334Z,100.00
2023-04-14T22:11:12.678Z,100.00
2023-04-14T22:13:42.138Z,100.00
2023-04-14T22:16:12.328Z,100.00
2023-04-14T22:18:42.329Z,100.00
2023-04-14T22:21:14.623Z,100.00
2023-04-14T22:23:45.028Z,100.00
2023-04-14T22:26:15.564Z,100.00
2023-04-14T22:28:44.794Z,100.00
2023-04-14T22:31:14.523Z,100.00
2023-04-14T22:33:44.623Z,100.00
2023-04-14T22:36:15.407Z,100.00
2023-04-14T22:38:48.457Z,100.00
2023-04-14T22:41:18.782Z,100.00
2023-04-14T22:43:48.463Z,100.00
2023-04-14T22:46:18.845Z,100.00
2023-04-14T22:48:48.197Z,100.00
2023-04-14T22:51:19.446Z,100.00
2023-04-14T22:53:48.715Z,100.00
2023-04-14T22:56:18.541Z,100.00
2023-04-14T22:58:47.908Z,100.00
2023-04-14T23:01:22.306Z,100.00
2023-04-14T23:03:53.004Z,100.00
2023-04-14T23:06:24.929Z,100.00
2023-04-14T23:08:54.461Z,100.00
2023-04-14T23:11:23.807Z,100.00
2023-04-14T23:13:53.046Z,100.00
2023-04-14T23:16:22.468Z,100.00
2023-04-14T23:18:52.594Z,100.00
2023-04-14T23:21:23.688Z,100.00
2023-04-14T23:23:53.766Z,100.00
2023-04-14T23:26:23.488Z,100.00
2023-04-14T23:28:53.531Z,100.00
2023-04-14T23:31:23.185Z,100.00
2023-04-14T23:33:53.121Z,100.00
2023-04-14T23:36:24.475Z,100.00
2023-04-14T23:38:54.751Z,100.00
2023-04-14T23:41:24.531Z,100.00
2023-04-14T23:43:54.139Z,100.00
2023-04-14T23:46:23.475Z,100.00
2023-04-14T23:48:53.371Z,100.00
2023-04-14T23:51:25.330Z,100.00
2023-04-14T23:53:54.601Z,100.00
2023-04-14T23:56:23.939Z,100.00
2023-04-14T23:58:53.421Z,100.00
